Time;durP1;ratioP1;P1;durP2;ratioP2;P2;SDS_P1;SDS_P2;PMS_P1;PMS_P2;Temp;Humidity;BMP_temperature;BMP_pressure;BME280_temperature;BME280_humidity;BME280_pressure;Samples;Min_cycle;Max_cycle;Signal;HPM_P1;HPM_P2
2022/12/11 00:01:16;;;;;;;1.27;0.32;;;;;;;9.39;93.46;99089.94;5027549;28;20049;-79
2022/12/11 00:03:45;;;;;;;0.10;0.10;;;;;;;9.34;94.30;99087.31;5030125;28;20463;-80
2022/12/11 00:06:17;;;;;;;0.22;0.20;;;;;;;9.33;94.81;99088.19;5030963;28;20484;-82
2022/12/11 00:08:45;;;;;;;0.22;0.22;;;;;;;9.32;95.55;99096.78;5029589;28;20061;-80
2022/12/11 00:11:17;;;;;;;0.40;0.20;;;;;;;9.26;96.14;99094.16;5029660;28;20126;-83
2022/12/11 00:13:47;;;;;;;0.20;0.20;;;;;;;9.21;97.86;99090.69;5029822;28;20060;-81
2022/12/11 00:16:16;;;;;;;0.20;0.20;;;;;;;9.19;100.00;99089.81;5025709;28;20061;-82
2022/12/11 00:18:45;;;;;;;0.57;0.32;;;;;;;9.16;100.00;99100.06;5030667;28;20073;-88
2022/12/11 00:21:15;;;;;;;0.85;0.40;;;;;;;9.06;100.00;99090.53;5028797;28;20049;-83
2022/12/11 00:23:43;;;;;;;0.17;0.15;;;;;;;9.00;100.00;99096.50;5027437;28;20122;-82
2022/12/11 00:26:16;;;;;;;1.88;0.20;;;;;;;8.90;100.00;99092.13;5027106;28;20062;-80
2022/12/11 00:28:46;;;;;;;0.30;0.20;;;;;;;8.78;100.00;99085.13;5028255;28;20206;-82
2022/12/11 00:31:16;;;;;;;0.32;0.20;;;;;;;8.71;100.00;99109.13;5028751;28;20049;-80
2022/12/11 00:33:47;;;;;;;0.20;0.20;;;;;;;8.68;100.00;99101.34;5029474;28;20053;-80
2022/12/11 00:36:18;;;;;;;0.70;0.40;;;;;;;8.64;100.00;99103.03;5027452;28;20133;-80
2022/12/11 00:38:47;;;;;;;0.43;0.20;;;;;;;8.67;100.00;99099.63;5027739;28;20254;-82
2022/12/11 00:41:18;;;;;;;0.28;0.15;;;;;;;8.66;100.00;99096.19;5026932;28;20120;-78
2022/12/11 00:43:47;;;;;;;1.13;0.32;;;;;;;8.68;100.00;99099.66;5027049;28;20107;-78
2022/12/11 00:46:15;;;;;;;0.20;0.17;;;;;;;8.71;100.00;99098.81;5026162;28;20052;-77
2022/12/11 00:48:45;;;;;;;0.38;0.20;;;;;;;8.76;100.00;99102.28;5022122;28;20050;-80
2022/12/11 00:51:13;;;;;;;1.92;0.40;;;;;;;8.80;100.00;99097.19;5024418;28;20052;-83
2022/12/11 00:53:42;;;;;;;0.10;0.10;;;;;;;8.83;100.00;99109.25;5022341;28;20045;-79
2022/12/11 00:56:13;;;;;;;0.20;0.13;;;;;;;8.86;100.00;99113.56;5025269;28;20507;-83
2022/12/11 00:58:43;;;;;;;0.45;0.32;;;;;;;8.90;100.00;99116.19;5028398;28;20045;-87
2022/12/11 01:01:13;;;;;;;0.10;0.10;;;;;;;8.91;100.00;99123.09;5029852;28;20054;-85
2022/12/11 01:03:42;;;;;;;0.85;0.50;;;;;;;8.93;100.00;99121.41;5027082;28;20053;-80
2022/12/11 01:06:15;;;;;;;0.28;0.20;;;;;;;8.94;100.00;99120.53;5027297;28;20653;-83
2022/12/11 01:08:44;;;;;;;0.28;0.20;;;;;;;8.96;100.00;99130.88;5027430;28;20049;-82
2022/12/11 01:11:14;;;;;;;3.05;0.30;;;;;;;8.96;100.00;99133.44;5028339;28;20076;-81
2022/12/11 01:13:45;;;;;;;0.20;0.10;;;;;;;8.93;100.00;99136.88;5024617;28;20061;-82
2022/12/11 01:16:15;;;;;;;0.20;0.13;;;;;;;8.91;100.00;99137.69;5018419;28;20065;-80
2022/12/11 01:18:44;;;;;;;0.20;0.20;;;;;;;8.92;100.00;99148.03;5005547;28;20050;-80
2022/12/11 01:21:14;;;;;;;0.25;0.20;;;;;;;8.89;100.00;99148.00;5007829;28;20046;-79
2022/12/11 01:23:42;;;;;;;0.38;0.20;;;;;;;8.88;100.00;99159.16;5006726;28;20042;-84
2022/12/11 01:26:14;;;;;;;0.28;0.28;;;;;;;8.86;100.00;99166.00;5003098;28;20046;-81
2022/12/11 01:28:45;;;;;;;1.15;0.22;;;;;;;8.86;100.00;99163.44;5005782;28;20056;-83
2022/12/11 01:31:15;;;;;;;0.28;0.20;;;;;;;8.83;100.00;99162.53;5007384;28;20475;-86
2022/12/11 01:33:44;;;;;;;0.55;0.35;;;;;;;8.77;100.00;99168.47;5006407;28;20229;-87
2022/12/11 01:36:16;;;;;;;0.30;0.20;;;;;;;8.74;100.00;99177.06;5006969;28;20053;-87
2022/12/11 01:38:44;;;;;;;1.60;0.40;;;;;;;8.71;100.00;99171.88;5010564;28;20049;-86
2022/12/11 01:41:13;;;;;;;0.22;0.20;;;;;;;8.71;100.00;99171.88;5006317;28;20049;-81
2022/12/11 01:44:01;;;;;;;0.28;0.28;;;;;;;8.71;100.00;99177.03;5002160;28;20070;-86
2022/12/11 01:46:30;;;;;;;0.88;0.50;;;;;;;8.68;99.95;99171.84;5009599;28;20516;-83
2022/12/11 01:49:07;;;;;;;0.40;0.30;;;;;;;8.62;100.00;99181.22;5005971;28;20105;-80
2022/12/11 01:51:41;;;;;;;1.23;0.32;;;;;;;8.53;100.00;99172.50;5006027;28;20045;-85
2022/12/11 01:54:13;;;;;;;0.35;0.28;;;;;;;8.47;99.92;99172.44;5008556;28;20053;-88
2022/12/11 01:56:44;;;;;;;1.05;0.30;;;;;;;8.42;100.00;99181.81;5011414;28;20060;-89
2022/12/11 01:59:18;;;;;;;1.20;0.43;;;;;;;8.34;100.00;99181.69;5011684;28;20050;-89
2022/12/11 02:01:50;;;;;;;1.45;0.30;;;;;;;8.28;100.00;99193.63;5006865;28;20117;-87
2022/12/11 02:04:20;;;;;;;4.28;0.45;;;;;;;8.24;100.00;99194.44;5011768;28;20089;-83
2022/12/11 02:06:51;;;;;;;0.50;0.30;;;;;;;8.21;100.00;99200.41;5004868;28;20050;-84
2022/12/11 02:09:24;;;;;;;0.57;0.30;;;;;;;8.18;100.00;99206.38;5010743;28;20038;-82
2022/12/11 02:12:00;;;;;;;1.08;0.38;;;;;;;8.15;100.00;99201.22;5005464;28;20069;-87
2022/12/11 02:14:37;;;;;;;1.33;0.45;;;;;;;8.09;100.00;99211.41;5009241;28;20050;-85
2022/12/11 02:17:12;;;;;;;0.35;0.28;;;;;;;8.07;100.00;99212.22;5022965;28;20055;-82
2022/12/11 02:19:58;;;;;;;0.30;0.30;;;;;;;8.07;100.00;99217.38;5021427;28;20041;-87
2022/12/11 02:22:40;;;;;;;0.55;0.30;;;;;;;8.09;100.00;99218.28;5025217;28;20049;-85
2022/12/11 02:25:21;;;;;;;0.63;0.20;;;;;;;8.12;100.00;99223.47;5023316;28;20057;-81
2022/12/11 02:27:55;;;;;;;2.75;0.52;;;;;;;8.13;100.00;99223.50;5025488;28;20557;-80
2022/12/11 02:30:26;;;;;;;2.17;0.30;;;;;;;8.11;100.00;99237.22;5027033;28;20083;-84
2022/12/11 02:32:57;;;;;;;0.60;0.20;;;;;;;8.10;100.00;99235.44;5026743;28;20525;-81
2022/12/11 02:35:31;;;;;;;0.80;0.30;;;;;;;8.08;100.00;99235.41;5027579;28;20057;-79
2022/12/11 02:38:06;;;;;;;0.28;0.25;;;;;;;8.07;100.00;99251.75;5028361;28;20057;-83
2022/12/11 02:40:38;;;;;;;0.47;0.22;;;;;;;8.04;100.00;99249.13;5024594;28;20041;-80
2022/12/11 02:43:10;;;;;;;0.30;0.28;;;;;;;8.05;100.00;99247.41;5023746;28;20051;-78
2022/12/11 02:45:42;;;;;;;0.68;0.40;;;;;;;8.05;100.00;99256.00;5027649;28;20054;-79
2022/12/11 02:48:13;;;;;;;0.30;0.30;;;;;;;8.06;100.00;99251.69;5027189;28;20076;-78
2022/12/11 02:50:46;;;;;;;0.75;0.50;;;;;;;8.06;100.00;99252.56;5025418;28;20500;-77
2022/12/11 02:53:19;;;;;;;0.32;0.20;;;;;;;8.04;100.00;99232.78;5029469;28;20486;-79
2022/12/11 02:55:51;;;;;;;0.77;0.35;;;;;;;8.15;100.00;99246.69;5026653;28;20077;-79
2022/12/11 02:58:23;;;;;;;0.50;0.30;;;;;;;8.15;100.00;99251.84;5026177;28;20049;-80
2022/12/11 03:00:53;;;;;;;1.50;0.50;;;;;;;8.18;100.00;99252.75;5028825;28;20459;-80
2022/12/11 03:03:23;;;;;;;0.70;0.45;;;;;;;8.16;100.00;99249.28;5030089;28;20052;-78
2022/12/11 03:05:52;;;;;;;0.82;0.20;;;;;;;8.18;100.00;99247.63;5026140;28;20057;-79
2022/12/11 03:08:20;;;;;;;0.68;0.45;;;;;;;8.24;100.00;99257.13;5033033;28;20537;-77
2022/12/11 03:10:49;;;;;;;0.85;0.50;;;;;;;8.30;100.00;99251.22;5032400;28;20564;-79
2022/12/11 03:13:20;;;;;;;0.35;0.20;;;;;;;8.32;100.00;99254.69;5028394;28;20045;-79
2022/12/11 03:16:05;;;;;;;1.65;0.30;;;;;;;8.32;100.00;99252.97;5034975;28;20500;-85
2022/12/11 03:18:41;;;;;;;0.40;0.30;;;;;;;8.30;100.00;99261.53;5025978;28;20068;-90
2022/12/11 03:21:15;;;;;;;1.52;0.30;;;;;;;8.32;100.00;99257.25;5026168;28;20046;-89
2022/12/11 03:23:50;;;;;;;0.73;0.47;;;;;;;8.27;100.00;99246.88;5024698;28;20085;-88
2022/12/11 03:26:21;;;;;;;0.75;0.52;;;;;;;8.37;100.00;99258.19;5025271;28;20046;-86
2022/12/11 03:28:54;;;;;;;0.25;0.25;;;;;;;8.38;100.00;99259.91;5018806;28;20095;-84
2022/12/11 03:31:26;;;;;;;;;;;;;;;8.36;100.00;99262.47;5026389;28;20057;-84
2022/12/11 03:33:59;;;;;;;0.30;0.20;;;;;;;8.33;100.00;99262.41;5012396;28;19921;-83
2022/12/11 03:36:32;;;;;;;;;;;;;;;8.26;100.00;99264.88;5007935;28;20050;-79
2022/12/11 03:39:03;;;;;;;0.75;0.50;;;;;;;8.22;100.00;99261.38;5007356;28;19925;-82
2022/12/11 03:41:34;;;;;;;0.55;0.40;;;;;;;8.23;100.00;99259.72;5005354;28;20539;-86
2022/12/11 03:44:03;;;;;;;0.30;0.30;;;;;;;8.24;100.00;99272.59;5002220;28;20047;-80
2022/12/11 03:46:37;;;;;;;0.50;0.40;;;;;;;8.29;100.00;99267.50;5001492;28;20130;-82
2022/12/11 03:49:12;;;;;;;0.88;0.40;;;;;;;8.28;100.00;99268.38;5000179;28;20751;-81
2022/12/11 03:51:42;;;;;;;0.93;0.50;;;;;;;8.27;100.00;99270.09;4999209;28;20534;-83
2022/12/11 03:54:12;;;;;;;1.60;0.43;;;;;;;8.27;100.00;99269.19;5004168;28;20610;-84
2022/12/11 03:56:41;;;;;;;3.50;0.40;;;;;;;8.27;100.00;99262.34;5009595;28;20046;-87
2022/12/11 03:59:10;;;;;;;1.67;0.40;;;;;;;8.25;100.00;99256.31;5007114;28;20684;-85
2022/12/11 04:01:41;;;;;;;0.73;0.60;;;;;;;8.25;100.00;99252.88;5004307;28;20129;-84
2022/12/11 04:04:09;;;;;;;0.98;0.30;;;;;;;8.24;100.00;99264.00;5009862;28;20060;-85
2022/12/11 04:06:38;;;;;;;1.23;0.60;;;;;;;8.19;100.00;99275.09;5006134;28;20050;-79
2022/12/11 04:09:07;;;;;;;1.05;0.57;;;;;;;8.14;100.00;99283.63;5005448;28;20492;-82
2022/12/11 04:11:35;;;;;;;1.13;0.45;;;;;;;8.08;100.00;99304.13;5010650;28;20054;-84
2022/12/11 04:16:52;;;;;;;1.55;0.75;;;;;;;7.98;100.00;99306.53;5014211;28;20060;-81
2022/12/11 04:24:52;;;;;;;0.70;0.60;;;;;;;7.85;100.00;99311.47;5021110;28;20069;-84
2022/12/11 04:30:03;;;;;;;1.42;0.60;;;;;;;7.74;100.00;99313.84;5020406;28;20456;-80
2022/12/11 04:32:33;;;;;;;1.63;0.75;;;;;;;7.71;100.00;99317.22;5020902;28;20042;-81
2022/12/11 04:35:01;;;;;;;0.70;0.45;;;;;;;7.71;100.00;99319.81;5029280;28;20491;-79
2022/12/11 04:37:30;;;;;;;0.93;0.52;;;;;;;7.70;100.00;99315.50;5024406;28;20439;-79
2022/12/11 04:39:59;;;;;;;0.77;0.55;;;;;;;7.70;100.00;99325.81;5029954;28;20451;-80
2022/12/11 04:42:27;;;;;;;0.95;0.45;;;;;;;7.71;100.00;99331.81;5023295;28;20072;-81
2022/12/11 04:44:56;;;;;;;0.70;0.50;;;;;;;7.72;100.00;99320.69;5025739;28;20139;-80
2022/12/11 04:47:25;;;;;;;2.33;0.63;;;;;;;7.72;100.00;99318.97;5022317;28;20045;-84
2022/12/11 04:49:55;;;;;;;1.13;0.45;;;;;;;7.72;100.00;99321.56;5028392;28;20053;-79
2022/12/11 04:52:24;;;;;;;2.67;0.65;;;;;;;7.69;100.00;99313.75;5032005;28;20053;-80
2022/12/11 04:54:53;;;;;;;1.48;0.52;;;;;;;7.72;100.00;99331.84;5026840;28;20053;-82
2022/12/11 04:57:21;;;;;;;0.93;0.50;;;;;;;7.72;100.00;99339.59;5024527;28;20053;-82
2022/12/11 04:59:50;;;;;;;0.90;0.50;;;;;;;7.71;100.00;99340.41;5027115;28;20115;-80
2022/12/11 05:02:19;;;;;;;1.08;0.60;;;;;;;7.71;100.00;99342.13;5025091;28;20045;-81
2022/12/11 05:04:47;;;;;;;1.95;0.70;;;;;;;7.71;100.00;99337.81;5016868;28;20585;-81
2022/12/11 05:07:18;;;;;;;0.65;0.60;;;;;;;7.67;100.00;99337.75;5029769;28;20729;-80
2022/12/11 05:09:46;;;;;;;1.27;0.70;;;;;;;7.67;100.00;99350.63;5012979;28;20049;-79
2022/12/11 05:12:15;;;;;;;1.45;0.73;;;;;;;7.68;100.00;99355.81;5016150;28;20801;-82
2022/12/11 05:14:44;;;;;;;1.65;0.82;;;;;;;7.68;100.00;99353.22;5023200;28;20049;-81
2022/12/11 05:17:12;;;;;;;2.30;0.70;;;;;;;7.69;100.00;99362.69;5019770;28;20064;-80
2022/12/11 05:19:41;;;;;;;1.10;0.52;;;;;;;7.68;100.00;99358.38;5026110;28;20192;-77
2022/12/11 05:22:09;;;;;;;0.77;0.50;;;;;;;7.70;100.00;99361.84;5021311;28;20053;-80
2022/12/11 05:24:40;;;;;;;1.23;0.70;;;;;;;7.73;100.00;99367.03;5021268;28;20573;-77
2022/12/11 05:27:09;;;;;;;1.52;0.70;;;;;;;7.75;100.00;99362.78;5026548;28;20053;-77
2022/12/11 05:29:38;;;;;;;1.02;0.90;;;;;;;7.80;100.00;99369.75;5017593;28;20046;-76
2022/12/11 05:32:06;;;;;;;0.75;0.70;;;;;;;7.83;100.00;99373.22;5020946;28;20517;-79
2022/12/11 05:34:35;;;;;;;1.20;0.75;;;;;;;7.89;100.00;99377.63;5017046;28;20049;-80
2022/12/11 05:37:05;;;;;;;0.95;0.82;;;;;;;7.89;100.00;99383.66;5019886;28;20054;-80
2022/12/11 05:39:33;;;;;;;1.58;0.88;;;;;;;7.90;100.00;99379.34;5017752;28;20408;-78
2022/12/11 05:42:03;;;;;;;1.00;0.50;;;;;;;7.91;100.00;99386.25;5015899;28;20052;-80
2022/12/11 05:44:32;;;;;;;2.58;0.70;;;;;;;7.93;100.00;99392.31;5018488;28;20057;-78
2022/12/11 05:47:01;;;;;;;4.10;0.90;;;;;;;7.94;100.00;99391.47;5019412;28;20057;-77
2022/12/11 05:49:30;;;;;;;1.60;0.88;;;;;;;7.94;100.00;99384.59;5023530;28;20077;-79
2022/12/11 05:51:58;;;;;;;12.27;4.38;;;;;;;7.94;100.00;99392.31;5026698;28;20061;-78
2022/12/11 05:54:27;;;;;;;24.48;7.20;;;;;;;7.93;100.00;99397.47;5018190;28;20061;-79
2022/12/11 05:56:56;;;;;;;8.90;3.63;;;;;;;7.89;100.00;99396.53;5018986;28;20104;-78
2022/12/11 05:59:26;;;;;;;8.93;3.72;;;;;;;7.87;100.00;99400.78;5022434;28;20077;-79
2022/12/11 06:01:55;;;;;;;7.88;2.70;;;;;;;7.81;100.00;99400.69;5025754;28;20049;-76
2022/12/11 06:04:24;;;;;;;10.05;4.13;;;;;;;7.78;100.00;99407.47;5023442;28;20045;-78
2022/12/11 06:06:55;;;;;;;10.75;3.65;;;;;;;7.69;100.00;99408.16;5026653;28;20045;-79
2022/12/11 06:09:23;;;;;;;6.20;2.03;;;;;;;7.65;100.00;99404.66;5020228;28;20049;-78
2022/12/11 06:11:52;;;;;;;13.70;2.90;;;;;;;7.59;100.00;99425.13;5018975;28;20081;-78
2022/12/11 06:14:21;;;;;;;7.32;2.85;;;;;;;7.52;100.00;99412.97;5021823;28;20108;-77
2022/12/11 06:16:51;;;;;;;7.32;2.40;;;;;;;7.50;100.00;99424.94;5031642;28;20123;-78
2022/12/11 06:19:19;;;;;;;5.40;2.47;;;;;;;7.43;100.00;99421.38;5024335;28;20049;-80
2022/12/11 06:21:48;;;;;;;7.78;2.88;;;;;;;7.40;100.00;99434.19;5026929;28;20076;-77
2022/12/11 06:24:17;;;;;;;3.90;1.70;;;;;;;7.36;100.00;99437.53;5023337;28;20053;-75
2022/12/11 06:26:45;;;;;;;4.45;2.10;;;;;;;7.32;100.00;99431.44;5026353;28;20118;-76
2022/12/11 06:29:14;;;;;;;4.22;1.90;;;;;;;7.28;100.00;99439.94;5022850;28;20050;-79
2022/12/11 06:31:43;;;;;;;3.05;1.63;;;;;;;7.26;100.00;99446.75;5026594;28;20638;-77
2022/12/11 06:34:14;;;;;;;3.80;1.60;;;;;;;7.22;100.00;99447.53;5027520;28;20049;-77
2022/12/11 06:36:43;;;;;;;4.78;1.67;;;;;;;7.13;100.00;99452.47;5019338;28;20046;-78
2022/12/11 06:39:12;;;;;;;4.25;1.70;;;;;;;7.10;100.00;99465.25;5023152;28;20107;-73
2022/12/11 06:41:40;;;;;;;3.53;1.73;;;;;;;7.06;100.00;99463.47;5021507;28;20050;-79
2022/12/11 06:44:09;;;;;;;3.72;1.40;;;;;;;7.03;100.00;99468.50;5027102;28;20058;-76
2022/12/11 06:46:38;;;;;;;2.17;1.05;;;;;;;6.99;100.00;99471.88;5021588;28;20049;-79
2022/12/11 06:49:07;;;;;;;3.05;1.30;;;;;;;6.95;100.00;99475.19;5024036;28;20057;-78
2022/12/11 06:51:37;;;;;;;2.03;1.33;;;;;;;6.90;100.00;99485.38;5026691;28;20050;-80
2022/12/11 06:54:06;;;;;;;2.63;1.23;;;;;;;6.84;100.00;99488.66;5018354;28;20053;-78
2022/12/11 06:56:36;;;;;;;2.78;1.45;;;;;;;6.79;100.00;99495.41;5021786;28;20176;-80
2022/12/11 06:59:04;;;;;;;2.38;1.38;;;;;;;6.75;100.00;99491.00;5025131;28;20136;-77
2022/12/11 07:01:34;;;;;;;2.90;1.40;;;;;;;6.72;100.00;99498.66;5025776;28;20053;-78
2022/12/11 07:04:03;;;;;;;2.47;1.42;;;;;;;6.68;100.00;99497.69;5019491;28;20170;-78
2022/12/11 07:06:32;;;;;;;2.33;1.42;;;;;;;6.65;100.00;99501.91;5023010;28;20065;-79
2022/12/11 07:09:04;;;;;;;4.25;1.60;;;;;;;6.66;100.00;99503.63;5021362;28;20068;-80
2022/12/11 07:11:33;;;;;;;2.65;1.50;;;;;;;6.66;100.00;99513.91;5021766;28;20060;-76
2022/12/11 07:14:09;;;;;;;3.22;1.50;;;;;;;6.66;100.00;99519.06;5024206;28;20046;-77
2022/12/11 07:16:38;;;;;;;2.08;1.48;;;;;;;6.66;100.00;99514.78;5024554;28;20050;-78
2022/12/11 07:19:07;;;;;;;3.28;1.85;;;;;;;6.65;100.00;99522.47;5028576;28;20049;-78
2022/12/11 07:21:36;;;;;;;3.20;1.58;;;;;;;6.63;100.00;99522.41;5020648;28;20522;-79
2022/12/11 07:24:07;;;;;;;9.98;2.80;;;;;;;6.61;100.00;99526.63;5016047;28;20049;-75
2022/12/11 07:26:36;;;;;;;7.88;3.45;;;;;;;6.60;100.00;99524.06;5019007;28;20053;-76
2022/12/11 07:29:04;;;;;;;5.72;2.72;;;;;;;6.57;100.00;99522.25;5021914;28;20053;-78
2022/12/11 07:31:33;;;;;;;8.88;2.47;;;;;;;6.53;100.00;99527.28;5022084;28;20049;-78
2022/12/11 07:34:04;;;;;;;7.45;2.83;;;;;;;6.52;100.00;99531.53;5017302;28;20054;-79
2022/12/11 07:36:33;;;;;;;4.72;2.60;;;;;;;6.52;100.00;99534.13;5021275;28;20053;-78
2022/12/11 07:39:02;;;;;;;5.88;2.15;;;;;;;6.48;100.00;99530.63;5016777;28;20511;-78
2022/12/11 07:41:32;;;;;;;4.28;2.22;;;;;;;6.45;100.00;99540.78;5020144;28;20053;-78
2022/12/11 07:44:01;;;;;;;7.40;2.30;;;;;;;6.43;100.00;99536.44;5018426;28;20164;-79
2022/12/11 07:46:32;;;;;;;5.55;1.90;;;;;;;6.40;100.00;99538.94;5025991;28;20471;-79
2022/12/11 07:49:01;;;;;;;5.32;1.85;;;;;;;6.38;100.00;99538.91;5022290;28;20069;-78
2022/12/11 07:51:31;;;;;;;4.15;1.92;;;;;;;6.36;100.00;99540.53;5022841;28;20069;-79
2022/12/11 07:54:01;;;;;;;4.53;2.10;;;;;;;6.31;100.00;99544.69;5023152;28;20049;-79
2022/12/11 07:56:33;;;;;;;6.45;2.88;;;;;;;6.29;100.00;99543.78;5018875;28;20049;-80
2022/12/11 07:59:04;;;;;;;6.20;3.13;;;;;;;6.25;100.00;99547.09;5024262;28;20049;-80
2022/12/11 08:01:34;;;;;;;6.43;3.33;;;;;;;6.19;100.00;99546.94;5028274;28;20123;-80
2022/12/11 08:04:03;;;;;;;8.02;2.83;;;;;;;6.17;100.00;99551.16;5026933;28;20045;-80
2022/12/11 08:06:33;;;;;;;6.20;2.72;;;;;;;6.15;100.00;99550.25;5020280;28;20506;-79
2022/12/11 08:09:04;;;;;;;6.00;3.25;;;;;;;6.15;100.00;99548.53;5026655;28;20701;-80
2022/12/11 08:11:35;;;;;;;4.45;2.55;;;;;;;6.12;100.00;99548.47;5019334;28;20103;-81
2022/12/11 08:14:05;;;;;;;6.68;2.55;;;;;;;6.08;100.00;99544.94;5023812;28;20111;-80
2022/12/11 08:16:34;;;;;;;3.00;2.00;;;;;;;6.08;100.00;99539.78;5020020;28;20113;-79
2022/12/11 08:19:03;;;;;;;4.88;2.38;;;;;;;6.09;100.00;99548.38;5017408;28;20058;-80
2022/12/11 08:21:31;;;;;;;6.07;2.30;;;;;;;6.08;100.00;99547.50;5023317;28;20045;-81
2022/12/11 08:24:00;;;;;;;3.13;2.20;;;;;;;6.10;100.00;99541.56;5027212;28;20056;-80
2022/12/11 08:26:30;;;;;;;2.95;1.90;;;;;;;6.10;100.00;99544.97;5020170;28;20220;-80
2022/12/11 08:29:01;;;;;;;5.47;1.85;;;;;;;6.08;100.00;99539.78;5021654;28;20466;-84
2022/12/11 08:31:30;;;;;;;3.47;2.20;;;;;;;6.10;100.00;99551.81;5018265;28;20045;-81
2022/12/11 08:33:59;;;;;;;3.55;2.40;;;;;;;6.06;100.00;99550.84;5026124;28;20045;-81
2022/12/11 08:36:28;;;;;;;5.90;2.53;;;;;;;6.02;100.00;99544.75;5017002;28;20244;-80
2022/12/11 08:38:57;;;;;;;5.55;2.97;;;;;;;5.99;100.00;99560.06;5025790;28;20119;-83
2022/12/11 08:41:28;;;;;;;5.05;3.00;;;;;;;5.95;100.00;99555.69;5017414;28;20132;-84
2022/12/11 08:44:00;;;;;;;5.15;2.75;;;;;;;5.93;100.00;99554.72;5024020;28;20474;-81
2022/12/11 08:46:31;;;;;;;7.13;3.75;;;;;;;5.92;100.00;99552.13;5021598;28;20109;-84
2022/12/11 08:49:00;;;;;;;9.90;3.53;;;;;;;5.87;100.00;99558.00;5023919;28;20069;-80
2022/12/11 08:51:30;;;;;;;8.60;3.30;;;;;;;5.83;100.00;99563.88;5020506;28;20052;-81
2022/12/11 08:54:00;;;;;;;5.03;2.65;;;;;;;5.79;100.00;99562.03;5023322;28;20060;-82
2022/12/11 08:56:29;;;;;;;6.85;2.65;;;;;;;5.74;100.00;99557.59;5026611;28;20775;-82
2022/12/11 08:59:01;;;;;;;5.10;2.50;;;;;;;5.74;100.00;99568.72;5024136;28;20113;-82
2022/12/11 09:01:30;;;;;;;4.00;2.40;;;;;;;5.63;100.00;99560.69;5025493;28;20076;-82
2022/12/11 09:03:59;;;;;;;5.20;2.60;;;;;;;5.66;100.00;99576.22;5023888;28;20136;-80
2022/12/11 09:06:29;;;;;;;4.57;2.53;;;;;;;5.65;100.00;99579.59;5021425;28;20543;-80
2022/12/11 09:09:01;;;;;;;5.00;2.65;;;;;;;5.63;100.00;99570.09;5025288;28;20546;-79
2022/12/11 09:11:31;;;;;;;7.13;3.08;;;;;;;5.59;100.00;99581.97;5023349;28;20067;-81
2022/12/11 09:14:01;;;;;;;6.32;2.63;;;;;;;5.53;100.00;99592.06;5024423;28;20711;-81
2022/12/11 09:16:30;;;;;;;4.10;2.50;;;;;;;5.42;100.00;99594.28;5020911;28;20509;-79
2022/12/11 09:19:00;;;;;;;4.75;3.10;;;;;;;5.34;100.00;99600.88;5024072;28;20546;-80
2022/12/11 09:21:30;;;;;;;3.90;2.30;;;;;;;5.33;100.00;99606.81;5025648;28;20041;-77
2022/12/11 09:23:59;;;;;;;3.42;2.08;;;;;;;5.32;100.00;99605.06;5027166;28;20077;-79
2022/12/11 09:26:29;;;;;;;4.63;2.13;;;;;;;5.31;100.00;99605.88;5024825;28;20049;-79
2022/12/11 09:28:58;;;;;;;4.60;2.22;;;;;;;5.30;100.00;99603.28;5026064;28;20076;-80
2022/12/11 09:31:29;;;;;;;4.05;3.08;;;;;;;5.23;100.00;99603.09;5025352;28;20045;-79
2022/12/11 09:34:00;;;;;;;4.30;2.25;;;;;;;5.22;100.00;99618.41;5020073;28;20061;-79
2022/12/11 09:36:29;;;;;;;2.53;1.77;;;;;;;5.21;100.00;99612.41;5025874;28;20159;-80
2022/12/11 09:39:01;;;;;;;5.57;2.42;;;;;;;5.21;100.00;99612.41;5021038;28;20084;-79
2022/12/11 09:41:41;;;;;;;4.22;2.60;;;;;;;5.22;100.00;99624.44;5023955;28;20891;-80
2022/12/11 09:44:21;;;;;;;4.05;2.50;;;;;;;5.22;100.00;99618.41;5026445;28;20060;-80
2022/12/11 09:46:52;;;;;;;6.03;3.22;;;;;;;5.22;100.00;99624.44;5028899;28;20045;-79
2022/12/11 09:49:32;;;;;;;6.40;3.45;;;;;;;5.20;100.00;99631.19;5022160;28;20188;-79
2022/12/11 09:52:11;;;;;;;7.13;2.97;;;;;;;5.19;100.00;99632.00;5025201;28;20132;-80
2022/12/11 09:54:46;;;;;;;6.43;3.03;;;;;;;5.17;100.00;99627.66;5020399;28;20515;-80
2022/12/11 09:57:36;;;;;;;3.40;2.40;;;;;;;5.15;100.00;99626.72;5026598;28;20072;-80
2022/12/11 10:00:18;;;;;;;4.30;2.35;;;;;;;5.15;100.00;99627.59;5024848;28;20053;-79
2022/12/11 10:03:07;;;;;;;3.17;1.83;;;;;;;5.15;100.00;99617.34;5021627;28;20073;-80
2022/12/11 10:05:44;;;;;;;3.38;1.92;;;;;;;5.16;100.00;99620.78;5026264;28;20042;-80
2022/12/11 10:08:18;;;;;;;3.20;1.80;;;;;;;5.16;100.00;99629.34;5024189;28;20681;-80
2022/12/11 10:10:56;;;;;;;3.47;1.75;;;;;;;5.15;100.00;99627.59;5025417;28;20637;-80
2022/12/11 10:13:31;;;;;;;4.35;1.77;;;;;;;5.15;100.00;99630.16;5025866;28;20053;-80
2022/12/11 10:16:04;;;;;;;1.67;1.30;;;;;;;5.15;100.00;99642.97;5018489;28;20503;-80
2022/12/11 10:18:36;;;;;;;4.18;1.83;;;;;;;5.14;100.00;99630.13;5024236;28;20499;-80
2022/12/11 10:21:05;;;;;;;4.22;1.52;;;;;;;5.14;100.00;99640.38;5017969;28;20053;-80
2022/12/11 10:23:46;;;;;;;6.00;1.90;;;;;;;5.11;100.00;99656.53;5024898;28;20134;-80
2022/12/11 10:26:19;;;;;;;5.05;2.35;;;;;;;5.10;100.00;99665.03;5022549;28;20042;-80
2022/12/11 10:28:47;;;;;;;2.15;1.40;;;;;;;5.10;100.00;99664.16;5018853;28;20136;-79
2022/12/11 10:31:19;;;;;;;7.65;2.38;;;;;;;5.06;100.00;99680.25;5019862;28;20049;-80
2022/12/11 10:33:59;;;;;;;3.60;1.88;;;;;;;5.01;100.00;99686.09;5023606;28;20049;-80
2022/12/11 10:36:30;;;;;;;3.60;1.58;;;;;;;5.02;100.00;99692.13;5022907;28;20049;-80
2022/12/11 10:38:59;;;;;;;2.30;1.63;;;;;;;5.04;100.00;99690.50;5027256;28;20053;-79
2022/12/11 10:41:38;;;;;;;3.47;2.05;;;;;;;5.09;100.00;99685.53;5025022;28;20498;-81
2022/12/11 10:44:17;;;;;;;4.22;1.85;;;;;;;5.11;100.00;99684.75;5023377;28;20057;-80
2022/12/11 10:46:47;;;;;;;2.97;1.98;;;;;;;5.15;100.00;99694.25;5020935;28;20132;-80
2022/12/11 10:49:26;;;;;;;2.50;1.75;;;;;;;5.18;100.00;99694.38;5019674;28;20050;-80
2022/12/11 10:51:55;;;;;;;3.72;1.98;;;;;;;5.23;100.00;99702.25;5019075;28;20115;-79
2022/12/11 10:54:33;;;;;;;3.67;2.00;;;;;;;5.25;100.00;99693.78;5022980;28;20641;-79
2022/12/11 10:57:04;;;;;;;2.90;1.67;;;;;;;5.30;100.00;99696.50;5027231;28;20049;-78
2022/12/11 10:59:38;;;;;;;3.05;1.50;;;;;;;5.33;100.00;99703.41;5029200;28;20053;-80
2022/12/11 11:02:17;;;;;;;6.60;2.30;;;;;;;5.35;100.00;99696.66;5028662;28;20594;-80
2022/12/11 11:04:47;;;;;;;2.78;1.30;;;;;;;5.37;100.00;99684.75;5027650;28;20049;-79
2022/12/11 11:07:20;;;;;;;3.40;1.60;;;;;;;5.36;100.00;99677.84;5024924;28;20784;-78
2022/12/11 11:09:49;;;;;;;3.40;1.90;;;;;;;5.35;100.00;99671.00;5021377;28;20494;-79
2022/12/11 11:12:23;;;;;;;4.55;2.58;;;;;;;5.37;100.00;99671.91;5026466;28;20049;-79
2022/12/11 11:15:01;;;;;;;3.38;1.90;;;;;;;5.46;100.00;99688.47;5027324;28;20099;-79
2022/12/11 11:17:32;;;;;;;4.00;1.98;;;;;;;5.50;100.00;99680.88;5018621;28;20058;-79
2022/12/11 11:20:12;;;;;;;4.25;2.17;;;;;;;5.52;100.00;99684.34;5005282;28;20050;-80
2022/12/11 11:22:45;;;;;;;4.30;2.50;;;;;;;5.53;100.00;99688.69;5009771;28;20442;-80
2022/12/11 11:25:18;;;;;;;;;;;;;;;5.55;100.00;99690.47;5008423;28;20046;-80
2022/12/11 11:27:51;;;;;;;3.47;1.77;;;;;;;5.57;100.00;99693.09;5006370;28;19940;-79
2022/12/11 11:30:22;;;;;;;3.58;1.80;;;;;;;5.59;100.00;99697.47;5006468;28;20393;-80
2022/12/11 11:32:54;;;;;;;4.65;2.35;;;;;;;5.60;100.00;99688.91;5006767;28;20715;-80
2022/12/11 11:35:27;;;;;;;3.20;2.07;;;;;;;5.61;100.00;99690.69;5008069;28;20420;-80
2022/12/11 11:37:59;;;;;;;;;;;;;;;5.63;100.00;99695.84;5008394;28;20054;-80
2022/12/11 11:40:30;;;;;;;3.25;1.67;;;;;;;5.63;100.00;99698.41;5005995;28;19932;-80
2022/12/11 11:43:12;;;;;;;2.08;1.70;;;;;;;5.65;100.00;99697.63;5006797;28;20056;-80
2022/12/11 11:45:47;;;;;;;2.05;1.63;;;;;;;5.69;100.00;99710.59;5006314;28;20054;-79
2022/12/11 11:48:30;;;;;;;4.35;2.03;;;;;;;5.72;100.00;99708.09;5002527;28;20471;-79
2022/12/11 11:51:03;;;;;;;2.75;1.17;;;;;;;5.72;100.00;99718.38;5005511;28;20049;-79
2022/12/11 11:53:40;;;;;;;5.35;1.75;;;;;;;5.72;100.00;99716.66;5003367;28;20043;-79
2022/12/11 11:56:20;;;;;;;3.92;1.63;;;;;;;5.72;100.00;99723.50;5005133;28;20504;-80
2022/12/11 11:58:58;;;;;;;2.83;1.88;;;;;;;5.72;100.00;99733.78;5008530;28;20083;-80
2022/12/11 12:01:27;;;;;;;3.60;1.50;;;;;;;5.74;100.00;99730.44;5007451;28;20470;-80
2022/12/11 12:03:57;;;;;;;3.22;1.65;;;;;;;5.74;100.00;99732.13;5005784;28;20049;-80